Pagrindinis puslapis
METAR-TAF:

METAR-TAF

Oro uostai :

Sharurah, Saudo Arabija

platuma: 17-28N, ilguma: 047-07E, Aukštis: 720 m

Dabartinis oras

Ataskaita buvo paskelbta 30 minutes, ne 08:00 UTC
Vėjas 6 kt iš Rytų/Šiaurės Rytų
Temperatūra 36°C
Drėgmė 12%
Slėgis 1012 hPa
Matomumas 10 km arba daugiau
nėra debesų žemiau 1500 m ir nėra kamuolinių lietaus debesų

METAR: OESH 010800Z 07006KT CAVOK 36/02 Q1012 NOSIG

Laikas: 11:30 (08:30 UTC)

Prognozė

Ataskaita buvo paskelbta 9 valandos ir 30 minutes, ne 23:00 UTC
Prognozė galioja nuo 01 metu 00 UTC su 02 metu 06 UTC
Vėjas 3 kt nuo kintamojo kryptimis
Matomumas 10 km arba daugiau
nėra debesų žemiau 1500 m ir nėra kamuolinių lietaus debesų
Tapsmas
nuo 01 metu 06 UTC su 01 metu 08 UTC
Vėjas 14 kt iš Pietų/Pietryčių

TAF: OESH 302300Z 0100/0206 VRB03KT CAVOK BECMG 0106/0108 16014KT

Orai ataskaitas ir orų prognozės (METAR, TAF).

turimą stotys yra geltonos ir raudonos taškus žemėlapyje.

Perkelti pele per norėdami pamatyti stoties vardą.

Tada spustelėkite, norėdami matyti oro stebėjimo ir prognozės.

Norėdami pakeisti žemėlapį: spustelėkite ant žalios mygtukų su juodo kryžiaus žemyn,; žalią mygtuką su brūkšneliu, jei norite nutolinti; arba žalių rodyklių gretimoms žemėlapius.


METAR-TAF: